sensor_id;sensor_type;location;lat;lon;timestamp;temperature;humidity
33460;DHT22;19795;53.160;6.612;2024-01-30T06:30:17;7.10;99.90
33460;DHT22;19795;53.160;6.612;2024-01-30T06:32:43;7.30;99.90
33460;DHT22;19795;53.160;6.612;2024-01-30T06:35:11;7.20;99.90
33460;DHT22;19795;53.160;6.612;2024-01-30T06:37:40;7.20;99.90
33460;DHT22;19795;53.160;6.612;2024-01-30T06:40:06;7.20;99.90
33460;DHT22;19795;53.160;6.612;2024-01-30T06:42:32;7.10;99.90
33460;DHT22;19795;53.160;6.612;2024-01-30T06:44:58;7.20;99.90
33460;DHT22;19795;53.160;6.612;2024-01-30T06:47:23;7.20;99.90
33460;DHT22;19795;53.160;6.612;2024-01-30T06:49:49;7.20;99.90
33460;DHT22;19795;53.160;6.612;2024-01-30T06:52:15;7.60;99.90
33460;DHT22;19795;53.160;6.612;2024-01-30T06:54:40;7.70;99.90
33460;DHT22;19795;53.160;6.612;2024-01-30T06:57:06;7.40;99.90
33460;DHT22;19795;53.160;6.612;2024-01-30T06:59:37;7.40;99.90
33460;DHT22;19795;53.160;6.612;2024-01-30T07:02:07;7.40;99.90
33460;DHT22;19795;53.160;6.612;2024-01-30T07:04:33;7.50;99.90
33460;DHT22;19795;53.160;6.612;2024-01-30T07:06:59;7.40;99.90
33460;DHT22;19795;53.160;6.612;2024-01-30T07:09:24;7.40;99.90
33460;DHT22;19795;53.160;6.612;2024-01-30T07:11:50;7.40;99.90
33460;DHT22;19795;53.160;6.612;2024-01-30T07:14:16;7.50;99.90
33460;DHT22;19795;53.160;6.612;2024-01-30T07:16:43;7.50;99.90
33460;DHT22;19795;53.160;6.612;2024-01-30T07:19:09;7.50;99.90
33460;DHT22;19795;53.160;6.612;2024-01-30T07:21:34;7.50;99.90
33460;DHT22;19795;53.160;6.612;2024-01-30T07:24:00;7.50;99.90
33460;DHT22;19795;53.160;6.612;2024-01-30T07:26:26;7.60;99.90
33460;DHT22;19795;53.160;6.612;2024-01-30T07:28:51;7.80;99.90
33460;DHT22;19795;53.160;6.612;2024-01-30T07:31:17;7.60;99.90
33460;DHT22;19795;53.160;6.612;2024-01-30T07:33:46;7.80;99.90
33460;DHT22;19795;53.160;6.612;2024-01-30T07:36:11;7.70;99.90
33460;DHT22;19795;53.160;6.612;2024-01-30T07:38:37;7.60;99.90
33460;DHT22;19795;53.160;6.612;2024-01-30T07:41:03;7.60;99.90
33460;DHT22;19795;53.160;6.612;2024-01-30T07:43:28;7.60;99.90
33460;DHT22;19795;53.160;6.612;2024-01-30T07:45:54;7.60;99.90
33460;DHT22;19795;53.160;6.612;2024-01-30T07:48:20;7.60;99.90
33460;DHT22;19795;53.160;6.612;2024-01-30T07:50:46;7.60;99.90
33460;DHT22;19795;53.160;6.612;2024-01-30T07:53:12;7.70;99.90
33460;DHT22;19795;53.160;6.612;2024-01-30T07:55:38;7.60;99.90
33460;DHT22;19795;53.160;6.612;2024-01-30T07:58:04;7.60;99.90
33460;DHT22;19795;53.160;6.612;2024-01-30T08:00:30;7.70;99.90
33460;DHT22;19795;53.160;6.612;2024-01-30T08:02:55;7.70;99.90
33460;DHT22;19795;53.160;6.612;2024-01-30T08:05:22;7.70;99.90
33460;DHT22;19795;53.160;6.612;2024-01-30T08:07:49;7.70;99.90
33460;DHT22;19795;53.160;6.612;2024-01-30T08:10:15;7.80;99.90
33460;DHT22;19795;53.160;6.612;2024-01-30T08:12:41;7.80;99.90
33460;DHT22;19795;53.160;6.612;2024-01-30T08:15:07;8.00;99.90
33460;DHT22;19795;53.160;6.612;2024-01-30T08:17:33;7.90;99.90
33460;DHT22;19795;53.160;6.612;2024-01-30T08:19:59;8.10;99.90
33460;DHT22;19795;53.160;6.612;2024-01-30T08:22:25;8.00;99.90
33460;DHT22;19795;53.160;6.612;2024-01-30T08:24:50;8.30;99.90
33460;DHT22;19795;53.160;6.612;2024-01-30T08:27:16;8.20;99.90
33460;DHT22;19795;53.160;6.612;2024-01-30T08:29:42;8.00;99.90
33460;DHT22;19795;53.160;6.612;2024-01-30T08:32:08;8.00;99.90
33460;DHT22;19795;53.160;6.612;2024-01-30T08:34:33;8.20;99.90
33460;DHT22;19795;53.160;6.612;2024-01-30T08:36:59;8.10;99.90
33460;DHT22;19795;53.160;6.612;2024-01-30T08:39:25;8.20;99.90
33460;DHT22;19795;53.160;6.612;2024-01-30T08:41:51;8.40;99.90
33460;DHT22;19795;53.160;6.612;2024-01-30T08:44:17;8.20;99.90
33460;DHT22;19795;53.160;6.612;2024-01-30T08:46:44;8.40;99.90
33460;DHT22;19795;53.160;6.612;2024-01-30T08:49:11;8.50;99.90
33460;DHT22;19795;53.160;6.612;2024-01-30T08:51:39;8.90;99.90
33460;DHT22;19795;53.160;6.612;2024-01-30T08:54:04;8.60;99.90
33460;DHT22;19795;53.160;6.612;2024-01-30T08:56:30;8.70;99.90
33460;DHT22;19795;53.160;6.612;2024-01-30T08:58:56;8.70;99.90
33460;DHT22;19795;53.160;6.612;2024-01-30T09:01:22;8.80;99.90
33460;DHT22;19795;53.160;6.612;2024-01-30T09:03:50;8.80;99.90
33460;DHT22;19795;53.160;6.612;2024-01-30T09:06:15;8.90;99.90
33460;DHT22;19795;53.160;6.612;2024-01-30T09:08:41;8.90;99.90
33460;DHT22;19795;53.160;6.612;2024-01-30T09:11:16;8.90;99.90
33460;DHT22;19795;53.160;6.612;2024-01-30T09:13:42;9.00;99.90
33460;DHT22;19795;53.160;6.612;2024-01-30T09:16:08;9.00;99.90
33460;DHT22;19795;53.160;6.612;2024-01-30T09:18:33;9.10;99.90
33460;DHT22;19795;53.160;6.612;2024-01-30T09:20:59;9.10;99.90
33460;DHT22;19795;53.160;6.612;2024-01-30T09:23:26;9.20;99.90
33460;DHT22;19795;53.160;6.612;2024-01-30T09:25:52;9.20;99.90
33460;DHT22;19795;53.160;6.612;2024-01-30T09:28:18;9.20;99.90
33460;DHT22;19795;53.160;6.612;2024-01-30T09:30:43;9.20;99.90
33460;DHT22;19795;53.160;6.612;2024-01-30T09:33:09;9.30;99.90
33460;DHT22;19795;53.160;6.612;2024-01-30T09:35:36;9.30;99.90
33460;DHT22;19795;53.160;6.612;2024-01-30T09:38:02;9.40;99.90
33460;DHT22;19795;53.160;6.612;2024-01-30T09:40:28;9.60;99.90
33460;DHT22;19795;53.160;6.612;2024-01-30T09:42:54;9.70;99.90
33460;DHT22;19795;53.160;6.612;2024-01-30T09:45:23;9.80;99.90
33460;DHT22;19795;53.160;6.612;2024-01-30T09:47:49;9.80;99.90
33460;DHT22;19795;53.160;6.612;2024-01-30T09:50:15;9.90;99.90
33460;DHT22;19795;53.160;6.612;2024-01-30T09:52:43;10.00;99.90
33460;DHT22;19795;53.160;6.612;2024-01-30T09:55:10;10.10;99.90
33460;DHT22;19795;53.160;6.612;2024-01-30T09:57:36;10.20;99.90
33460;DHT22;19795;53.160;6.612;2024-01-30T10:00:05;10.20;99.90
33460;DHT22;19795;53.160;6.612;2024-01-30T10:02:35;10.20;99.90
33460;DHT22;19795;53.160;6.612;2024-01-30T10:05:00;10.20;99.90
33460;DHT22;19795;53.160;6.612;2024-01-30T10:07:26;10.20;99.90
33460;DHT22;19795;53.160;6.612;2024-01-30T10:09:53;10.20;99.90
33460;DHT22;19795;53.160;6.612;2024-01-30T10:12:19;10.20;99.90
33460;DHT22;19795;53.160;6.612;2024-01-30T10:14:45;10.20;99.90
33460;DHT22;19795;53.160;6.612;2024-01-30T10:17:11;10.10;99.90
33460;DHT22;19795;53.160;6.612;2024-01-30T10:19:38;10.30;99.90
33460;DHT22;19795;53.160;6.612;2024-01-30T10:22:04;10.30;99.90
33460;DHT22;19795;53.160;6.612;2024-01-30T10:24:30;10.50;99.90
33460;DHT22;19795;53.160;6.612;2024-01-30T10:26:56;10.50;99.90
33460;DHT22;19795;53.160;6.612;2024-01-30T10:29:22;10.60;99.90
33460;DHT22;19795;53.160;6.612;2024-01-30T10:32:04;10.60;99.90
33460;DHT22;19795;53.160;6.612;2024-01-30T10:34:31;10.70;99.90
33460;DHT22;19795;53.160;6.612;2024-01-30T10:37:10;10.70;99.90
33460;DHT22;19795;53.160;6.612;2024-01-30T10:39:42;10.70;99.90
33460;DHT22;19795;53.160;6.612;2024-01-30T10:42:17;10.60;99.90
33460;DHT22;19795;53.160;6.612;2024-01-30T10:45:15;10.60;99.90
33460;DHT22;19795;53.160;6.612;2024-01-30T10:47:49;10.50;99.90
33460;DHT22;19795;53.160;6.612;2024-01-30T10:50:15;10.50;99.90
33460;DHT22;19795;53.160;6.612;2024-01-30T10:52:41;10.50;99.90
33460;DHT22;19795;53.160;6.612;2024-01-30T10:55:08;10.40;99.90
33460;DHT22;19795;53.160;6.612;2024-01-30T10:57:37;10.40;99.90
33460;DHT22;19795;53.160;6.612;2024-01-30T11:00:10;10.40;99.90
33460;DHT22;19795;53.160;6.612;2024-01-30T11:02:40;10.50;99.90
33460;DHT22;19795;53.160;6.612;2024-01-30T11:05:06;10.50;99.90
33460;DHT22;19795;53.160;6.612;2024-01-30T11:07:31;10.40;99.90
33460;DHT22;19795;53.160;6.612;2024-01-30T11:12:24;10.50;99.90
33460;DHT22;19795;53.160;6.612;2024-01-30T11:15:09;10.50;99.90
33460;DHT22;19795;53.160;6.612;2024-01-30T11:17:53;10.50;99.90
33460;DHT22;19795;53.160;6.612;2024-01-30T11:20:27;10.50;99.90
33460;DHT22;19795;53.160;6.612;2024-01-30T11:22:54;10.50;99.90
33460;DHT22;19795;53.160;6.612;2024-01-30T11:25:22;10.40;99.90
33460;DHT22;19795;53.160;6.612;2024-01-30T11:27:50;10.40;99.90
33460;DHT22;19795;53.160;6.612;2024-01-30T11:33:30;10.40;99.90
33460;DHT22;19795;53.160;6.612;2024-01-30T11:35:58;10.40;99.90
33460;DHT22;19795;53.160;6.612;2024-01-30T11:38:26;10.40;99.90
33460;DHT22;19795;53.160;6.612;2024-01-30T11:40:56;10.40;99.90
33460;DHT22;19795;53.160;6.612;2024-01-30T11:43:23;10.30;99.90
33460;DHT22;19795;53.160;6.612;2024-01-30T11:45:49;10.30;99.90
33460;DHT22;19795;53.160;6.612;2024-01-30T11:48:15;10.20;99.90
33460;DHT22;19795;53.160;6.612;2024-01-30T11:50:40;10.30;99.90
33460;DHT22;19795;53.160;6.612;2024-01-30T11:53:06;10.20;99.90
33460;DHT22;19795;53.160;6.612;2024-01-30T11:55:32;10.10;99.90
33460;DHT22;19795;53.160;6.612;2024-01-30T11:58:00;10.10;99.90
33460;DHT22;19795;53.160;6.612;2024-01-30T12:00:26;10.10;99.90
33460;DHT22;19795;53.160;6.612;2024-01-30T12:02:55;10.20;99.90
33460;DHT22;19795;53.160;6.612;2024-01-30T12:05:22;10.20;99.90
33460;DHT22;19795;53.160;6.612;2024-01-30T12:07:48;10.20;99.90
33460;DHT22;19795;53.160;6.612;2024-01-30T12:10:14;10.10;99.90
33460;DHT22;19795;53.160;6.612;2024-01-30T12:12:41;10.00;99.90
33460;DHT22;19795;53.160;6.612;2024-01-30T12:15:08;10.10;99.90
33460;DHT22;19795;53.160;6.612;2024-01-30T12:17:34;9.90;99.90
33460;DHT22;19795;53.160;6.612;2024-01-30T12:22:30;9.80;99.90
33460;DHT22;19795;53.160;6.612;2024-01-30T12:24:56;9.80;99.90
33460;DHT22;19795;53.160;6.612;2024-01-30T12:27:22;9.80;99.90
33460;DHT22;19795;53.160;6.612;2024-01-30T12:29:48;9.90;99.90
33460;DHT22;19795;53.160;6.612;2024-01-30T12:32:22;10.10;99.90
33460;DHT22;19795;53.160;6.612;2024-01-30T12:34:48;10.30;99.90
33460;DHT22;19795;53.160;6.612;2024-01-30T12:37:14;10.20;99.90
33460;DHT22;19795;53.160;6.612;2024-01-30T12:39:43;10.40;99.90
33460;DHT22;19795;53.160;6.612;2024-01-30T12:42:08;10.50;99.90
33460;DHT22;19795;53.160;6.612;2024-01-30T12:44:34;10.50;99.90
33460;DHT22;19795;53.160;6.612;2024-01-30T12:47:03;10.30;99.90
33460;DHT22;19795;53.160;6.612;2024-01-30T12:49:29;10.30;99.90
33460;DHT22;19795;53.160;6.612;2024-01-30T12:51:54;10.40;99.90
33460;DHT22;19795;53.160;6.612;2024-01-30T12:54:20;10.20;99.90
33460;DHT22;19795;53.160;6.612;2024-01-30T12:56:46;10.10;99.90
33460;DHT22;19795;53.160;6.612;2024-01-30T12:59:11;10.00;99.90
33460;DHT22;19795;53.160;6.612;2024-01-30T13:01:37;9.90;99.90
33460;DHT22;19795;53.160;6.612;2024-01-30T13:04:03;9.80;99.90
33460;DHT22;19795;53.160;6.612;2024-01-30T13:06:28;9.70;99.90
33460;DHT22;19795;53.160;6.612;2024-01-30T13:08:54;9.70;99.90
33460;DHT22;19795;53.160;6.612;2024-01-30T13:11:20;9.70;99.90
33460;DHT22;19795;53.160;6.612;2024-01-30T13:13:46;9.60;99.90
33460;DHT22;19795;53.160;6.612;2024-01-30T13:16:11;9.70;99.90
33460;DHT22;19795;53.160;6.612;2024-01-30T13:18:37;9.70;99.90
33460;DHT22;19795;53.160;6.612;2024-01-30T13:21:03;9.80;99.90
33460;DHT22;19795;53.160;6.612;2024-01-30T13:23:28;9.90;99.90
33460;DHT22;19795;53.160;6.612;2024-01-30T13:25:54;10.00;99.90
33460;DHT22;19795;53.160;6.612;2024-01-30T13:28:23;10.10;99.90
33460;DHT22;19795;53.160;6.612;2024-01-30T13:30:49;10.10;99.90
33460;DHT22;19795;53.160;6.612;2024-01-30T13:33:15;10.10;99.90
33460;DHT22;19795;53.160;6.612;2024-01-30T13:35:40;10.10;99.90
33460;DHT22;19795;53.160;6.612;2024-01-30T13:38:06;10.10;99.90
33460;DHT22;19795;53.160;6.612;2024-01-30T13:40:32;10.10;99.90
33460;DHT22;19795;53.160;6.612;2024-01-30T13:42:58;10.10;99.90
33460;DHT22;19795;53.160;6.612;2024-01-30T13:45:23;10.10;99.90
33460;DHT22;19795;53.160;6.612;2024-01-30T13:47:49;10.20;99.90
33460;DHT22;19795;53.160;6.612;2024-01-30T13:50:14;10.00;99.90
33460;DHT22;19795;53.160;6.612;2024-01-30T13:52:42;10.00;99.90
33460;DHT22;19795;53.160;6.612;2024-01-30T13:55:09;9.90;99.90
33460;DHT22;19795;53.160;6.612;2024-01-30T13:57:35;9.80;99.90
33460;DHT22;19795;53.160;6.612;2024-01-30T14:00:03;9.80;99.90
33460;DHT22;19795;53.160;6.612;2024-01-30T14:02:32;9.80;99.90
33460;DHT22;19795;53.160;6.612;2024-01-30T14:04:57;9.70;99.90
33460;DHT22;19795;53.160;6.612;2024-01-30T14:07:23;9.80;99.90
33460;DHT22;19795;53.160;6.612;2024-01-30T14:09:49;9.70;99.90
33460;DHT22;19795;53.160;6.612;2024-01-30T14:12:15;9.70;99.90
33460;DHT22;19795;53.160;6.612;2024-01-30T14:14:41;9.70;99.90
33460;DHT22;19795;53.160;6.612;2024-01-30T14:17:07;9.60;99.90
33460;DHT22;19795;53.160;6.612;2024-01-30T14:19:36;9.60;99.90
33460;DHT22;19795;53.160;6.612;2024-01-30T14:22:02;9.70;99.90
33460;DHT22;19795;53.160;6.612;2024-01-30T14:24:27;9.50;99.90
33460;DHT22;19795;53.160;6.612;2024-01-30T14:26:53;9.50;99.90
33460;DHT22;19795;53.160;6.612;2024-01-30T14:29:19;9.50;99.90
33460;DHT22;19795;53.160;6.612;2024-01-30T14:31:44;9.30;99.90
33460;DHT22;19795;53.160;6.612;2024-01-30T14:34:10;9.30;99.90
33460;DHT22;19795;53.160;6.612;2024-01-30T14:36:37;9.20;99.90
33460;DHT22;19795;53.160;6.612;2024-01-30T14:39:03;9.10;99.90
33460;DHT22;19795;53.160;6.612;2024-01-30T14:41:29;9.10;99.90
33460;DHT22;19795;53.160;6.612;2024-01-30T14:43:55;9.00;99.90
33460;DHT22;19795;53.160;6.612;2024-01-30T14:46:21;8.90;99.90
33460;DHT22;19795;53.160;6.612;2024-01-30T14:48:47;8.80;99.90
33460;DHT22;19795;53.160;6.612;2024-01-30T14:51:13;9.10;99.90
33460;DHT22;19795;53.160;6.612;2024-01-30T14:53:39;8.80;99.90
33460;DHT22;19795;53.160;6.612;2024-01-30T14:56:05;8.80;99.90
33460;DHT22;19795;53.160;6.612;2024-01-30T14:58:31;8.70;99.90
33460;DHT22;19795;53.160;6.612;2024-01-30T15:00:57;8.70;99.90
33460;DHT22;19795;53.160;6.612;2024-01-30T15:03:23;8.60;99.90
33460;DHT22;19795;53.160;6.612;2024-01-30T15:05:48;8.50;99.90
33460;DHT22;19795;53.160;6.612;2024-01-30T15:08:14;8.50;99.90
33460;DHT22;19795;53.160;6.612;2024-01-30T15:10:40;8.50;99.90
33460;DHT22;19795;53.160;6.612;2024-01-30T15:13:05;8.40;99.90
33460;DHT22;19795;53.160;6.612;2024-01-30T15:15:31;8.40;99.90
33460;DHT22;19795;53.160;6.612;2024-01-30T15:17:57;8.50;99.90
33460;DHT22;19795;53.160;6.612;2024-01-30T15:20:23;8.40;99.90
33460;DHT22;19795;53.160;6.612;2024-01-30T15:22:49;8.40;99.90
33460;DHT22;19795;53.160;6.612;2024-01-30T15:25:15;8.40;99.90
33460;DHT22;19795;53.160;6.612;2024-01-30T15:27:43;8.40;99.90
33460;DHT22;19795;53.160;6.612;2024-01-30T15:30:11;8.30;99.90
33460;DHT22;19795;53.160;6.612;2024-01-30T15:32:37;8.20;99.90
33460;DHT22;19795;53.160;6.612;2024-01-30T15:35:03;8.30;99.90
33460;DHT22;19795;53.160;6.612;2024-01-30T15:37:29;8.30;99.90
33460;DHT22;19795;53.160;6.612;2024-01-30T15:39:55;8.30;99.90
33460;DHT22;19795;53.160;6.612;2024-01-30T15:42:20;8.30;99.90
33460;DHT22;19795;53.160;6.612;2024-01-30T15:44:46;8.30;99.90
33460;DHT22;19795;53.160;6.612;2024-01-30T15:47:12;8.70;99.90
33460;DHT22;19795;53.160;6.612;2024-01-30T15:49:37;8.30;99.90
33460;DHT22;19795;53.160;6.612;2024-01-30T15:52:03;8.50;99.90
33460;DHT22;19795;53.160;6.612;2024-01-30T15:54:29;8.30;99.90
33460;DHT22;19795;53.160;6.612;2024-01-30T15:56:54;8.40;99.90
33460;DHT22;19795;53.160;6.612;2024-01-30T15:59:20;8.30;99.90
33460;DHT22;19795;53.160;6.612;2024-01-30T16:01:46;8.30;99.90
33460;DHT22;19795;53.160;6.612;2024-01-30T16:04:15;8.30;99.90
33460;DHT22;19795;53.160;6.612;2024-01-30T16:06:41;8.30;99.90
33460;DHT22;19795;53.160;6.612;2024-01-30T16:09:08;8.20;99.90
33460;DHT22;19795;53.160;6.612;2024-01-30T16:11:36;8.50;99.90
33460;DHT22;19795;53.160;6.612;2024-01-30T16:14:02;8.20;99.90
33460;DHT22;19795;53.160;6.612;2024-01-30T16:16:28;8.20;99.90
33460;DHT22;19795;53.160;6.612;2024-01-30T16:18:54;8.10;99.90
33460;DHT22;19795;53.160;6.612;2024-01-30T16:21:22;8.10;99.90
33460;DHT22;19795;53.160;6.612;2024-01-30T16:23:48;8.20;99.90
33460;DHT22;19795;53.160;6.612;2024-01-30T16:26:14;8.10;99.90
33460;DHT22;19795;53.160;6.612;2024-01-30T16:28:40;8.00;99.90
33460;DHT22;19795;53.160;6.612;2024-01-30T16:31:05;8.00;99.90
33460;DHT22;19795;53.160;6.612;2024-01-30T16:33:31;8.00;99.90
33460;DHT22;19795;53.160;6.612;2024-01-30T16:35:57;8.10;99.90
33460;DHT22;19795;53.160;6.612;2024-01-30T16:38:23;8.00;99.90
33460;DHT22;19795;53.160;6.612;2024-01-30T16:40:49;8.00;99.90
33460;DHT22;19795;53.160;6.612;2024-01-30T16:43:16;7.90;99.90
33460;DHT22;19795;53.160;6.612;2024-01-30T16:45:41;7.90;99.90
33460;DHT22;19795;53.160;6.612;2024-01-30T16:48:07;7.90;99.90
33460;DHT22;19795;53.160;6.612;2024-01-30T16:50:33;8.00;99.90
33460;DHT22;19795;53.160;6.612;2024-01-30T16:53:01;7.80;99.90
33460;DHT22;19795;53.160;6.612;2024-01-30T16:55:27;7.80;99.90
33460;DHT22;19795;53.160;6.612;2024-01-30T16:57:56;7.70;99.90
33460;DHT22;19795;53.160;6.612;2024-01-30T17:00:24;7.60;99.90
33460;DHT22;19795;53.160;6.612;2024-01-30T17:02:52;8.10;99.90
33460;DHT22;19795;53.160;6.612;2024-01-30T17:05:21;7.60;99.90
33460;DHT22;19795;53.160;6.612;2024-01-30T17:07:46;7.50;99.90
33460;DHT22;19795;53.160;6.612;2024-01-30T17:10:12;7.50;99.90
33460;DHT22;19795;53.160;6.612;2024-01-30T17:12:44;7.50;99.90
33460;DHT22;19795;53.160;6.612;2024-01-30T17:15:15;7.50;99.90
33460;DHT22;19795;53.160;6.612;2024-01-30T17:17:41;7.60;99.90
33460;DHT22;19795;53.160;6.612;2024-01-30T17:20:07;7.50;99.90
33460;DHT22;19795;53.160;6.612;2024-01-30T17:22:33;7.50;99.90
33460;DHT22;19795;53.160;6.612;2024-01-30T17:24:59;7.40;99.90
33460;DHT22;19795;53.160;6.612;2024-01-30T17:27:24;7.40;99.90
33460;DHT22;19795;53.160;6.612;2024-01-30T17:29:50;7.50;99.90
33460;DHT22;19795;53.160;6.612;2024-01-30T17:32:16;7.50;99.90
33460;DHT22;19795;53.160;6.612;2024-01-30T17:35:02;7.40;99.90
33460;DHT22;19795;53.160;6.612;2024-01-30T17:37:28;7.40;99.90
33460;DHT22;19795;53.160;6.612;2024-01-30T17:39:56;7.40;99.90
33460;DHT22;19795;53.160;6.612;2024-01-30T17:42:24;7.40;99.90
33460;DHT22;19795;53.160;6.612;2024-01-30T17:44:52;7.30;99.90
33460;DHT22;19795;53.160;6.612;2024-01-30T17:47:18;7.00;99.90
33460;DHT22;19795;53.160;6.612;2024-01-30T17:49:49;7.30;99.90
33460;DHT22;19795;53.160;6.612;2024-01-30T17:55:15;7.20;99.90
33460;DHT22;19795;53.160;6.612;2024-01-30T17:57:44;7.20;99.90
33460;DHT22;19795;53.160;6.612;2024-01-30T18:00:10;7.30;99.90
33460;DHT22;19795;53.160;6.612;2024-01-30T18:02:36;7.20;99.90
33460;DHT22;19795;53.160;6.612;2024-01-30T18:05:04;7.20;99.90
33460;DHT22;19795;53.160;6.612;2024-01-30T18:07:31;7.10;99.90
33460;DHT22;19795;53.160;6.612;2024-01-30T18:09:59;7.10;99.90
33460;DHT22;19795;53.160;6.612;2024-01-30T18:12:25;7.10;99.90
33460;DHT22;19795;53.160;6.612;2024-01-30T18:14:51;7.10;99.90
33460;DHT22;19795;53.160;6.612;2024-01-30T18:17:17;7.10;99.90
33460;DHT22;19795;53.160;6.612;2024-01-30T18:19:42;7.10;99.90
33460;DHT22;19795;53.160;6.612;2024-01-30T18:22:08;7.00;99.90
33460;DHT22;19795;53.160;6.612;2024-01-30T18:24:34;7.00;99.90
33460;DHT22;19795;53.160;6.612;2024-01-30T18:27:06;7.00;99.90
33460;DHT22;19795;53.160;6.612;2024-01-30T18:29:35;7.00;99.90
33460;DHT22;19795;53.160;6.612;2024-01-30T18:32:00;7.00;99.90
33460;DHT22;19795;53.160;6.612;2024-01-30T18:34:26;7.00;99.90
33460;DHT22;19795;53.160;6.612;2024-01-30T18:37:23;6.90;99.90
33460;DHT22;19795;53.160;6.612;2024-01-30T18:43:04;6.90;99.90
33460;DHT22;19795;53.160;6.612;2024-01-30T18:46:04;6.90;99.90
33460;DHT22;19795;53.160;6.612;2024-01-30T18:48:31;6.90;99.90
33460;DHT22;19795;53.160;6.612;2024-01-30T18:51:07;6.80;99.90
33460;DHT22;19795;53.160;6.612;2024-01-30T18:53:33;6.80;99.90
33460;DHT22;19795;53.160;6.612;2024-01-30T18:56:09;6.80;99.90
33460;DHT22;19795;53.160;6.612;2024-01-30T18:58:46;6.80;99.90
33460;DHT22;19795;53.160;6.612;2024-01-30T19:01:15;7.30;99.90
33460;DHT22;19795;53.160;6.612;2024-01-30T19:03:43;6.80;99.90
33460;DHT22;19795;53.160;6.612;2024-01-30T19:06:09;6.70;99.90
33460;DHT22;19795;53.160;6.612;2024-01-30T19:08:44;7.10;99.90
33460;DHT22;19795;53.160;6.612;2024-01-30T19:11:19;6.70;99.90
33460;DHT22;19795;53.160;6.612;2024-01-30T19:13:47;6.60;99.90
33460;DHT22;19795;53.160;6.612;2024-01-30T19:16:14;6.60;99.90
33460;DHT22;19795;53.160;6.612;2024-01-30T19:18:40;6.60;99.90
33460;DHT22;19795;53.160;6.612;2024-01-30T19:21:06;6.70;99.90
33460;DHT22;19795;53.160;6.612;2024-01-30T19:23:31;6.60;99.90
33460;DHT22;19795;53.160;6.612;2024-01-30T19:25:57;6.60;99.90
33460;DHT22;19795;53.160;6.612;2024-01-30T19:28:22;6.60;99.90
33460;DHT22;19795;53.160;6.612;2024-01-30T19:30:48;6.70;99.90
33460;DHT22;19795;53.160;6.612;2024-01-30T19:33:15;6.50;99.90
33460;DHT22;19795;53.160;6.612;2024-01-30T19:35:40;6.50;99.90
33460;DHT22;19795;53.160;6.612;2024-01-30T19:38:06;6.50;99.90
33460;DHT22;19795;53.160;6.612;2024-01-30T19:40:33;7.00;99.90
33460;DHT22;19795;53.160;6.612;2024-01-30T19:42:59;5.90;99.90
33460;DHT22;19795;53.160;6.612;2024-01-30T19:45:25;6.50;99.90
33460;DHT22;19795;53.160;6.612;2024-01-30T19:47:51;6.50;99.90
33460;DHT22;19795;53.160;6.612;2024-01-30T19:50:18;6.40;99.90
33460;DHT22;19795;53.160;6.612;2024-01-30T19:52:43;6.40;99.90
33460;DHT22;19795;53.160;6.612;2024-01-30T19:55:09;6.70;99.90
33460;DHT22;19795;53.160;6.612;2024-01-30T19:57:35;6.40;99.90
33460;DHT22;19795;53.160;6.612;2024-01-30T20:00:00;6.50;99.90
33460;DHT22;19795;53.160;6.612;2024-01-30T20:02:26;6.30;99.90
33460;DHT22;19795;53.160;6.612;2024-01-30T20:04:53;6.30;99.90
33460;DHT22;19795;53.160;6.612;2024-01-30T20:07:18;6.30;99.90
33460;DHT22;19795;53.160;6.612;2024-01-30T20:09:44;6.60;99.90
33460;DHT22;19795;53.160;6.612;2024-01-30T20:12:10;6.40;99.90
33460;DHT22;19795;53.160;6.612;2024-01-30T20:14:35;6.70;99.90
33460;DHT22;19795;53.160;6.612;2024-01-30T20:17:01;6.90;99.90
33460;DHT22;19795;53.160;6.612;2024-01-30T20:19:27;6.30;99.90
33460;DHT22;19795;53.160;6.612;2024-01-30T20:21:53;6.30;99.90
33460;DHT22;19795;53.160;6.612;2024-01-30T20:24:19;6.20;99.90
33460;DHT22;19795;53.160;6.612;2024-01-30T20:26:45;6.60;99.90
33460;DHT22;19795;53.160;6.612;2024-01-30T20:29:11;6.20;99.90
33460;DHT22;19795;53.160;6.612;2024-01-30T20:31:36;6.20;99.90
33460;DHT22;19795;53.160;6.612;2024-01-30T20:34:02;6.20;99.90
33460;DHT22;19795;53.160;6.612;2024-01-30T20:36:29;6.10;99.90
33460;DHT22;19795;53.160;6.612;2024-01-30T20:38:55;6.10;99.90
33460;DHT22;19795;53.160;6.612;2024-01-30T20:41:20;6.20;99.90
33460;DHT22;19795;53.160;6.612;2024-01-30T20:43:46;6.10;99.90
33460;DHT22;19795;53.160;6.612;2024-01-30T20:46:12;6.20;99.90
33460;DHT22;19795;53.160;6.612;2024-01-30T20:48:41;6.10;99.90
33460;DHT22;19795;53.160;6.612;2024-01-30T20:51:09;6.50;99.90
33460;DHT22;19795;53.160;6.612;2024-01-30T20:53:38;6.10;99.90
33460;DHT22;19795;53.160;6.612;2024-01-30T20:56:05;6.00;99.90
33460;DHT22;19795;53.160;6.612;2024-01-30T20:58:31;6.00;99.90
33460;DHT22;19795;53.160;6.612;2024-01-30T21:00:57;6.00;99.90
33460;DHT22;19795;53.160;6.612;2024-01-30T21:03:25;6.00;99.90
33460;DHT22;19795;53.160;6.612;2024-01-30T21:05:54;6.30;99.90
33460;DHT22;19795;53.160;6.612;2024-01-30T21:08:20;5.90;99.90
33460;DHT22;19795;53.160;6.612;2024-01-30T21:10:46;6.00;99.90
33460;DHT22;19795;53.160;6.612;2024-01-30T21:13:11;6.00;99.90
33460;DHT22;19795;53.160;6.612;2024-01-30T21:15:37;5.90;99.90
33460;DHT22;19795;53.160;6.612;2024-01-30T21:18:03;5.90;99.90
33460;DHT22;19795;53.160;6.612;2024-01-30T21:20:31;5.90;99.90
